Alva, Wyoming
Current Conditions -  °F | °C
As of 10:55 PM on Saturday 22 Nov 2014 (Local Time) from KSPF Reporting Station
Broken Clouds Broken Clouds  
Wind Chill: 27°   Ceiling: 7500
Heat Index: 36°   Visibility: 10mi
Dew Point: 28°   Wind: 13mph
Humidity: 75%   Direction: 270°W
Pressure: 29.55"   Gusts: 22mph
Location:  44.69°N, 104.44°W
Report Text: KSPF 230555Z AUTO 27011G19KT 10SM SCT055 BKN075 02/M02 A2955 RMK AO2 P0002
Loading
Personal Weather Stations






























Interactive Weather Map New forecast layout! Learn more

10-Day Weather Forecast

Advertisements
Track Severe Weather on mobile